sensor_id;sensor_type;location;lat;lon;timestamp;pressure;altitude;pressure_sealevel;temperature;humidity
21234;BME280;10774;42.178;26.578;2023-07-20T00:01:13;99459.91;;;27.20;51.64
21234;BME280;10774;42.178;26.578;2023-07-20T00:03:39;99456.13;;;27.15;51.55
21234;BME280;10774;42.178;26.578;2023-07-20T00:06:04;99454.22;;;27.15;51.41
21234;BME280;10774;42.178;26.578;2023-07-20T00:08:30;99452.13;;;27.10;51.75
21234;BME280;10774;42.178;26.578;2023-07-20T00:10:55;99460.28;;;26.59;52.63
21234;BME280;10774;42.178;26.578;2023-07-20T00:13:21;99461.75;;;26.22;53.69
21234;BME280;10774;42.178;26.578;2023-07-20T00:15:47;99464.66;;;25.87;54.46
21234;BME280;10774;42.178;26.578;2023-07-20T00:18:12;99472.59;;;25.55;56.71
21234;BME280;10774;42.178;26.578;2023-07-20T00:20:38;99476.91;;;25.78;57.40
21234;BME280;10774;42.178;26.578;2023-07-20T00:23:04;99472.28;;;25.92;57.23
21234;BME280;10774;42.178;26.578;2023-07-20T00:25:29;99468.81;;;25.70;57.09
21234;BME280;10774;42.178;26.578;2023-07-20T00:27:54;99478.19;;;25.89;56.81
21234;BME280;10774;42.178;26.578;2023-07-20T00:30:20;99481.19;;;25.33;59.10
21234;BME280;10774;42.178;26.578;2023-07-20T00:32:45;99471.09;;;24.70;60.15
21234;BME280;10774;42.178;26.578;2023-07-20T00:35:11;99480.19;;;24.43;63.16
21234;BME280;10774;42.178;26.578;2023-07-20T00:37:38;99487.66;;;24.84;62.17
21234;BME280;10774;42.178;26.578;2023-07-20T00:40:04;99479.50;;;25.32;60.67
21234;BME280;10774;42.178;26.578;2023-07-20T00:42:31;99477.28;;;25.68;60.13
21234;BME280;10774;42.178;26.578;2023-07-20T00:44:56;99461.28;;;25.78;59.05
21234;BME280;10774;42.178;26.578;2023-07-20T00:47:22;99448.56;;;25.77;59.49
21234;BME280;10774;42.178;26.578;2023-07-20T00:49:48;99449.84;;;25.75;59.40
21234;BME280;10774;42.178;26.578;2023-07-20T00:52:14;99453.66;;;25.80;58.88
21234;BME280;10774;42.178;26.578;2023-07-20T00:54:41;99461.69;;;25.89;58.61
21234;BME280;10774;42.178;26.578;2023-07-20T00:57:07;99470.59;;;25.91;58.54
21234;BME280;10774;42.178;26.578;2023-07-20T00:59:34;99498.63;;;25.18;60.16
21234;BME280;10774;42.178;26.578;2023-07-20T01:02:00;99552.94;;;24.39;63.86
21234;BME280;10774;42.178;26.578;2023-07-20T01:04:25;99633.38;;;23.44;71.79
21234;BME280;10774;42.178;26.578;2023-07-20T01:07:09;99664.25;;;22.62;83.24
21234;BME280;10774;42.178;26.578;2023-07-20T01:12:43;99582.66;;;23.48;79.27
21234;BME280;10774;42.178;26.578;2023-07-20T01:15:09;99590.47;;;23.66;77.00
21234;BME280;10774;42.178;26.578;2023-07-20T01:17:35;99594.13;;;23.88;75.38
21234;BME280;10774;42.178;26.578;2023-07-20T01:20:02;99577.44;;;24.04;73.44
21234;BME280;10774;42.178;26.578;2023-07-20T01:33:38;99587.38;;;24.91;68.96
21234;BME280;10774;42.178;26.578;2023-07-20T01:36:05;99580.19;;;25.18;68.08
21234;BME280;10774;42.178;26.578;2023-07-20T01:38:31;99587.81;;;24.45;70.29
21234;BME280;10774;42.178;26.578;2023-07-20T01:40:57;99591.59;;;24.65;70.28
21234;BME280;10774;42.178;26.578;2023-07-20T01:43:23;99568.94;;;25.06;68.91
21234;BME280;10774;42.178;26.578;2023-07-20T01:45:48;99577.25;;;25.19;67.45
21234;BME280;10774;42.178;26.578;2023-07-20T01:48:14;99560.75;;;25.19;66.82
21234;BME280;10774;42.178;26.578;2023-07-20T01:50:39;99567.16;;;25.26;67.06
21234;BME280;10774;42.178;26.578;2023-07-20T01:53:05;99540.56;;;25.34;66.20
21234;BME280;10774;42.178;26.578;2023-07-20T01:55:30;99543.34;;;25.40;66.22
21234;BME280;10774;42.178;26.578;2023-07-20T01:57:56;99553.59;;;25.60;64.95
21234;BME280;10774;42.178;26.578;2023-07-20T02:00:21;99534.19;;;25.26;65.27
21234;BME280;10774;42.178;26.578;2023-07-20T02:02:49;99534.19;;;25.26;66.08
21234;BME280;10774;42.178;26.578;2023-07-20T02:05:15;99522.38;;;25.33;65.45
21234;BME280;10774;42.178;26.578;2023-07-20T02:07:41;99505.16;;;24.83;66.87
21234;BME280;10774;42.178;26.578;2023-07-20T02:10:07;99501.91;;;24.72;68.08
21234;BME280;10774;42.178;26.578;2023-07-20T02:12:32;99506.91;;;24.90;67.53
21234;BME280;10774;42.178;26.578;2023-07-20T02:14:58;99496.78;;;24.91;67.54
21234;BME280;10774;42.178;26.578;2023-07-20T02:17:23;99478.19;;;24.93;67.29
21234;BME280;10774;42.178;26.578;2023-07-20T02:19:56;99483.38;;;25.09;66.54
21234;BME280;10774;42.178;26.578;2023-07-20T02:22:23;99475.91;;;25.03;66.65
21234;BME280;10774;42.178;26.578;2023-07-20T02:24:48;99463.75;;;25.12;65.84
21234;BME280;10774;42.178;26.578;2023-07-20T02:27:14;99452.97;;;24.76;67.21
21234;BME280;10774;42.178;26.578;2023-07-20T02:29:41;99432.41;;;24.65;68.04
21234;BME280;10774;42.178;26.578;2023-07-20T02:32:07;99428.66;;;24.73;67.38
21234;BME280;10774;42.178;26.578;2023-07-20T02:34:33;99424.13;;;24.52;68.59
21234;BME280;10774;42.178;26.578;2023-07-20T02:36:58;99416.81;;;24.72;67.79
21234;BME280;10774;42.178;26.578;2023-07-20T02:39:27;99404.19;;;24.78;67.49
21234;BME280;10774;42.178;26.578;2023-07-20T02:41:53;99416.09;;;24.92;67.30
21234;BME280;10774;42.178;26.578;2023-07-20T02:44:18;99414.28;;;24.71;67.69
21234;BME280;10774;42.178;26.578;2023-07-20T02:46:44;99412.72;;;24.55;68.56
21234;BME280;10774;42.178;26.578;2023-07-20T02:49:09;99400.13;;;24.67;68.00
21234;BME280;10774;42.178;26.578;2023-07-20T02:51:34;99384.16;;;24.43;69.01
21234;BME280;10774;42.178;26.578;2023-07-20T02:54:00;99376.59;;;24.51;68.72
21234;BME280;10774;42.178;26.578;2023-07-20T02:56:26;99386.03;;;24.14;70.36
21234;BME280;10774;42.178;26.578;2023-07-20T02:58:52;99379.03;;;23.84;71.59
21234;BME280;10774;42.178;26.578;2023-07-20T03:01:17;99400.31;;;23.82;72.98
21234;BME280;10774;42.178;26.578;2023-07-20T03:03:43;99388.38;;;23.89;72.24
21234;BME280;10774;42.178;26.578;2023-07-20T03:06:13;99393.09;;;24.02;71.76
21234;BME280;10774;42.178;26.578;2023-07-20T03:08:40;99384.50;;;24.05;71.41
21234;BME280;10774;42.178;26.578;2023-07-20T03:11:07;99393.66;;;23.91;72.25
21234;BME280;10774;42.178;26.578;2023-07-20T03:13:33;99407.34;;;23.91;72.47
21234;BME280;10774;42.178;26.578;2023-07-20T03:15:58;99394.41;;;24.06;71.30
21234;BME280;10774;42.178;26.578;2023-07-20T03:18:23;99402.69;;;24.41;69.37
21234;BME280;10774;42.178;26.578;2023-07-20T03:20:49;99412.50;;;24.29;69.73
21234;BME280;10774;42.178;26.578;2023-07-20T03:23:14;99403.13;;;24.38;68.97
21234;BME280;10774;42.178;26.578;2023-07-20T03:25:40;99393.06;;;24.51;68.97
21234;BME280;10774;42.178;26.578;2023-07-20T03:28:06;99411.41;;;24.86;67.46
21234;BME280;10774;42.178;26.578;2023-07-20T03:30:31;99408.47;;;24.94;66.97
21234;BME280;10774;42.178;26.578;2023-07-20T03:32:57;99421.44;;;25.00;66.24
21234;BME280;10774;42.178;26.578;2023-07-20T03:35:22;99424.22;;;25.07;66.18
21234;BME280;10774;42.178;26.578;2023-07-20T03:37:48;99408.00;;;25.18;65.48
21234;BME280;10774;42.178;26.578;2023-07-20T03:40:14;99409.75;;;25.33;65.83
21234;BME280;10774;42.178;26.578;2023-07-20T03:42:40;99403.56;;;25.17;67.04
21234;BME280;10774;42.178;26.578;2023-07-20T03:45:06;99400.09;;;25.02;67.46
21234;BME280;10774;42.178;26.578;2023-07-20T03:47:31;99416.47;;;24.82;69.28
21234;BME280;10774;42.178;26.578;2023-07-20T03:49:57;99409.25;;;24.74;70.32
21234;BME280;10774;42.178;26.578;2023-07-20T03:52:22;99414.31;;;24.77;70.31
21234;BME280;10774;42.178;26.578;2023-07-20T03:54:49;99405.09;;;24.92;69.79
21234;BME280;10774;42.178;26.578;2023-07-20T03:57:16;99407.28;;;25.03;69.63
21234;BME280;10774;42.178;26.578;2023-07-20T03:59:44;99416.16;;;25.05;69.55
21234;BME280;10774;42.178;26.578;2023-07-20T04:02:10;99418.34;;;25.16;69.84
21234;BME280;10774;42.178;26.578;2023-07-20T04:04:35;99418.38;;;25.23;68.97
21234;BME280;10774;42.178;26.578;2023-07-20T04:07:01;99408.81;;;25.12;69.08
21234;BME280;10774;42.178;26.578;2023-07-20T04:09:26;99419.56;;;25.07;69.46
21234;BME280;10774;42.178;26.578;2023-07-20T04:11:52;99412.72;;;24.90;70.83
21234;BME280;10774;42.178;26.578;2023-07-20T04:14:17;99415.63;;;24.88;71.21
21234;BME280;10774;42.178;26.578;2023-07-20T04:16:43;99416.13;;;24.08;76.11
21234;BME280;10774;42.178;26.578;2023-07-20T04:19:08;99423.09;;;24.60;74.47
21234;BME280;10774;42.178;26.578;2023-07-20T04:21:39;99404.94;;;25.00;73.04
21234;BME280;10774;42.178;26.578;2023-07-20T04:24:06;99407.00;;;25.33;72.33
21234;BME280;10774;42.178;26.578;2023-07-20T04:26:31;99393.94;;;25.61;69.55
21234;BME280;10774;42.178;26.578;2023-07-20T04:28:57;99401.41;;;25.94;67.36
21234;BME280;10774;42.178;26.578;2023-07-20T04:31:24;99396.56;;;26.22;65.87
21234;BME280;10774;42.178;26.578;2023-07-20T04:33:50;99401.00;;;26.43;64.59
21234;BME280;10774;42.178;26.578;2023-07-20T04:36:16;99398.41;;;26.62;63.76
21234;BME280;10774;42.178;26.578;2023-07-20T04:38:45;99404.50;;;26.83;61.78
21234;BME280;10774;42.178;26.578;2023-07-20T04:41:10;99401.91;;;27.02;60.61
21234;BME280;10774;42.178;26.578;2023-07-20T04:43:41;99403.16;;;27.06;59.99
21234;BME280;10774;42.178;26.578;2023-07-20T04:46:07;99424.75;;;27.22;59.98
21234;BME280;10774;42.178;26.578;2023-07-20T04:48:32;99419.41;;;27.27;59.65
21234;BME280;10774;42.178;26.578;2023-07-20T04:50:57;99421.88;;;26.91;60.75
21234;BME280;10774;42.178;26.578;2023-07-20T04:53:23;99405.50;;;27.02;60.59
21234;BME280;10774;42.178;26.578;2023-07-20T04:55:50;99419.28;;;27.16;59.87
21234;BME280;10774;42.178;26.578;2023-07-20T04:58:17;99413.53;;;27.17;59.33
21234;BME280;10774;42.178;26.578;2023-07-20T05:00:43;99421.25;;;27.40;58.62
21234;BME280;10774;42.178;26.578;2023-07-20T05:03:09;99426.91;;;27.52;58.65
21234;BME280;10774;42.178;26.578;2023-07-20T05:05:34;99439.00;;;27.51;58.45
21234;BME280;10774;42.178;26.578;2023-07-20T05:08:00;99425.34;;;27.24;59.12
21234;BME280;10774;42.178;26.578;2023-07-20T05:10:25;99422.09;;;27.41;58.89
21234;BME280;10774;42.178;26.578;2023-07-20T05:12:51;99427.97;;;27.51;59.05
21234;BME280;10774;42.178;26.578;2023-07-20T05:15:16;99424.72;;;27.74;58.23
21234;BME280;10774;42.178;26.578;2023-07-20T05:17:42;99434.28;;;27.26;59.36
21234;BME280;10774;42.178;26.578;2023-07-20T05:20:07;99426.28;;;27.12;60.95
21234;BME280;10774;42.178;26.578;2023-07-20T05:22:36;99432.56;;;27.70;59.31
21234;BME280;10774;42.178;26.578;2023-07-20T05:25:08;99422.56;;;27.76;59.21
21234;BME280;10774;42.178;26.578;2023-07-20T05:27:36;99436.38;;;27.62;60.98
21234;BME280;10774;42.178;26.578;2023-07-20T05:30:01;99432.97;;;27.29;60.99
21234;BME280;10774;42.178;26.578;2023-07-20T05:32:27;99432.63;;;27.12;61.85
21234;BME280;10774;42.178;26.578;2023-07-20T05:34:54;99435.72;;;27.29;62.11
21234;BME280;10774;42.178;26.578;2023-07-20T05:37:20;99433.41;;;27.71;61.07
21234;BME280;10774;42.178;26.578;2023-07-20T05:39:45;99433.06;;;27.54;61.35
21234;BME280;10774;42.178;26.578;2023-07-20T05:42:11;99423.09;;;27.91;60.23
21234;BME280;10774;42.178;26.578;2023-07-20T05:44:36;99421.94;;;28.05;61.03
21234;BME280;10774;42.178;26.578;2023-07-20T05:47:02;99413.03;;;28.28;59.97
21234;BME280;10774;42.178;26.578;2023-07-20T05:49:28;99413.75;;;28.42;58.71
21234;BME280;10774;42.178;26.578;2023-07-20T05:51:54;99428.00;;;28.64;58.07
21234;BME280;10774;42.178;26.578;2023-07-20T05:54:20;99415.88;;;28.65;57.04
21234;BME280;10774;42.178;26.578;2023-07-20T05:56:46;99417.28;;;28.74;56.77
21234;BME280;10774;42.178;26.578;2023-07-20T05:59:11;99415.13;;;28.76;56.25
21234;BME280;10774;42.178;26.578;2023-07-20T06:01:37;99404.84;;;28.15;57.92
21234;BME280;10774;42.178;26.578;2023-07-20T06:04:02;99407.06;;;28.75;56.75
21234;BME280;10774;42.178;26.578;2023-07-20T06:06:28;99397.34;;;29.09;55.34
21234;BME280;10774;42.178;26.578;2023-07-20T06:08:54;99411.06;;;29.15;55.03
21234;BME280;10774;42.178;26.578;2023-07-20T06:11:20;99419.63;;;28.96;55.91
21234;BME280;10774;42.178;26.578;2023-07-20T06:13:45;99413.13;;;28.83;56.59
21234;BME280;10774;42.178;26.578;2023-07-20T06:16:11;99404.25;;;29.18;55.03
21234;BME280;10774;42.178;26.578;2023-07-20T06:18:36;99407.25;;;29.47;53.99
21234;BME280;10774;42.178;26.578;2023-07-20T06:21:02;99411.16;;;29.57;53.45
21234;BME280;10774;42.178;26.578;2023-07-20T06:23:27;99404.50;;;29.77;52.79
21234;BME280;10774;42.178;26.578;2023-07-20T06:25:53;99423.63;;;29.78;52.12
21234;BME280;10774;42.178;26.578;2023-07-20T06:28:18;99403.25;;;30.03;52.16
21234;BME280;10774;42.178;26.578;2023-07-20T06:30:44;99407.81;;;30.09;52.54
21234;BME280;10774;42.178;26.578;2023-07-20T06:33:09;99413.91;;;30.29;53.17
21234;BME280;10774;42.178;26.578;2023-07-20T06:35:34;99412.00;;;30.00;52.94
21234;BME280;10774;42.178;26.578;2023-07-20T06:38:01;99405.22;;;30.26;52.84
21234;BME280;10774;42.178;26.578;2023-07-20T06:40:29;99391.91;;;29.92;51.80
21234;BME280;10774;42.178;26.578;2023-07-20T06:42:55;99401.50;;;30.32;49.93
21234;BME280;10774;42.178;26.578;2023-07-20T06:45:21;99400.66;;;30.55;49.04
21234;BME280;10774;42.178;26.578;2023-07-20T06:47:46;99384.75;;;30.62;48.68
21234;BME280;10774;42.178;26.578;2023-07-20T06:50:12;99393.28;;;30.84;48.84
21234;BME280;10774;42.178;26.578;2023-07-20T06:52:37;99384.25;;;30.88;49.15
21234;BME280;10774;42.178;26.578;2023-07-20T06:55:05;99386.38;;;31.10;48.23
21234;BME280;10774;42.178;26.578;2023-07-20T06:57:31;99390.72;;;31.06;48.43
21234;BME280;10774;42.178;26.578;2023-07-20T06:59:56;99377.22;;;31.09;48.17
21234;BME280;10774;42.178;26.578;2023-07-20T07:02:22;99381.94;;;31.37;46.65
21234;BME280;10774;42.178;26.578;2023-07-20T07:04:47;99373.72;;;31.42;46.51
21234;BME280;10774;42.178;26.578;2023-07-20T07:07:16;99385.72;;;31.60;45.27
21234;BME280;10774;42.178;26.578;2023-07-20T07:09:50;99388.69;;;31.70;44.61
21234;BME280;10774;42.178;26.578;2023-07-20T07:12:15;99371.31;;;31.74;44.53
21234;BME280;10774;42.178;26.578;2023-07-20T07:14:41;99369.84;;;31.72;43.81
21234;BME280;10774;42.178;26.578;2023-07-20T07:17:06;99380.56;;;31.80;44.00
21234;BME280;10774;42.178;26.578;2023-07-20T07:19:32;99376.34;;;31.77;44.55
21234;BME280;10774;42.178;26.578;2023-07-20T07:21:57;99371.84;;;31.88;44.57
21234;BME280;10774;42.178;26.578;2023-07-20T07:24:23;99375.88;;;31.97;44.53
21234;BME280;10774;42.178;26.578;2023-07-20T07:26:48;99367.47;;;32.09;43.94
21234;BME280;10774;42.178;26.578;2023-07-20T07:29:14;99375.22;;;32.41;43.94
21234;BME280;10774;42.178;26.578;2023-07-20T07:31:39;99367.44;;;32.26;43.79
21234;BME280;10774;42.178;26.578;2023-07-20T07:34:04;99380.19;;;32.22;44.93
21234;BME280;10774;42.178;26.578;2023-07-20T07:36:31;99369.81;;;32.34;43.85
21234;BME280;10774;42.178;26.578;2023-07-20T07:38:57;99380.50;;;32.42;44.27
21234;BME280;10774;42.178;26.578;2023-07-20T07:41:22;99375.72;;;32.55;43.45
21234;BME280;10774;42.178;26.578;2023-07-20T07:43:48;99374.22;;;32.69;43.58
21234;BME280;10774;42.178;26.578;2023-07-20T07:46:14;99371.34;;;32.81;42.92
21234;BME280;10774;42.178;26.578;2023-07-20T07:48:39;99362.91;;;32.92;42.27
21234;BME280;10774;42.178;26.578;2023-07-20T07:51:05;99376.78;;;33.14;42.15
21234;BME280;10774;42.178;26.578;2023-07-20T07:53:31;99354.94;;;33.23;41.69
21234;BME280;10774;42.178;26.578;2023-07-20T07:55:57;99371.28;;;33.19;42.73
21234;BME280;10774;42.178;26.578;2023-07-20T07:58:23;99369.53;;;33.35;43.05
21234;BME280;10774;42.178;26.578;2023-07-20T08:00:48;99369.13;;;33.48;42.36
21234;BME280;10774;42.178;26.578;2023-07-20T08:03:14;99361.94;;;33.52;42.00
21234;BME280;10774;42.178;26.578;2023-07-20T08:05:39;99362.94;;;33.41;41.56
21234;BME280;10774;42.178;26.578;2023-07-20T08:08:05;99364.91;;;33.19;42.00
21234;BME280;10774;42.178;26.578;2023-07-20T08:10:31;99354.56;;;32.92;41.82
21234;BME280;10774;42.178;26.578;2023-07-20T08:12:56;99355.91;;;32.90;42.75
21234;BME280;10774;42.178;26.578;2023-07-20T08:15:22;99358.03;;;33.04;42.54
21234;BME280;10774;42.178;26.578;2023-07-20T08:17:47;99346.09;;;33.04;42.53
21234;BME280;10774;42.178;26.578;2023-07-20T08:20:14;99350.84;;;33.30;41.15
21234;BME280;10774;42.178;26.578;2023-07-20T08:22:41;99362.28;;;33.56;40.26
21234;BME280;10774;42.178;26.578;2023-07-20T08:25:07;99359.06;;;33.42;40.01
21234;BME280;10774;42.178;26.578;2023-07-20T08:27:33;99354.44;;;33.53;39.85
21234;BME280;10774;42.178;26.578;2023-07-20T08:29:59;99364.94;;;33.73;37.36
21234;BME280;10774;42.178;26.578;2023-07-20T08:32:25;99356.97;;;33.54;38.08
21234;BME280;10774;42.178;26.578;2023-07-20T08:34:50;99353.81;;;33.46;38.32
21234;BME280;10774;42.178;26.578;2023-07-20T08:37:16;99336.03;;;33.79;38.13
21234;BME280;10774;42.178;26.578;2023-07-20T08:39:41;99353.31;;;34.08;37.96
21234;BME280;10774;42.178;26.578;2023-07-20T08:42:07;99342.06;;;34.35;36.33
21234;BME280;10774;42.178;26.578;2023-07-20T08:44:33;99354.34;;;34.34;36.63
21234;BME280;10774;42.178;26.578;2023-07-20T08:47:03;99357.31;;;34.59;36.29
21234;BME280;10774;42.178;26.578;2023-07-20T08:49:31;99351.78;;;34.70;36.13
21234;BME280;10774;42.178;26.578;2023-07-20T08:51:57;99349.44;;;34.51;35.34
21234;BME280;10774;42.178;26.578;2023-07-20T08:54:24;99346.25;;;34.85;34.86
21234;BME280;10774;42.178;26.578;2023-07-20T08:56:54;99355.25;;;34.92;34.39
21234;BME280;10774;42.178;26.578;2023-07-20T08:59:20;99334.66;;;34.98;34.40
21234;BME280;10774;42.178;26.578;2023-07-20T09:01:48;99356.75;;;35.20;33.42
21234;BME280;10774;42.178;26.578;2023-07-20T09:04:14;99347.81;;;35.13;33.70
21234;BME280;10774;42.178;26.578;2023-07-20T09:06:41;99354.00;;;35.25;33.53
21234;BME280;10774;42.178;26.578;2023-07-20T09:09:06;99345.63;;;35.30;32.63
21234;BME280;10774;42.178;26.578;2023-07-20T09:11:31;99340.34;;;35.34;32.45
21234;BME280;10774;42.178;26.578;2023-07-20T09:14:05;99341.44;;;35.38;32.69
21234;BME280;10774;42.178;26.578;2023-07-20T09:16:31;99329.75;;;35.36;32.26
21234;BME280;10774;42.178;26.578;2023-07-20T09:18:58;99339.50;;;35.28;32.80
21234;BME280;10774;42.178;26.578;2023-07-20T09:21:23;99349.84;;;35.43;32.74
21234;BME280;10774;42.178;26.578;2023-07-20T09:23:49;99344.88;;;35.50;31.99
21234;BME280;10774;42.178;26.578;2023-07-20T09:26:18;99348.22;;;35.52;31.95
21234;BME280;10774;42.178;26.578;2023-07-20T09:28:54;99342.66;;;35.68;32.10
21234;BME280;10774;42.178;26.578;2023-07-20T09:31:22;99333.16;;;35.84;32.76
21234;BME280;10774;42.178;26.578;2023-07-20T09:33:49;99327.06;;;36.07;32.59
21234;BME280;10774;42.178;26.578;2023-07-20T09:36:15;99328.69;;;36.39;31.46
21234;BME280;10774;42.178;26.578;2023-07-20T09:38:43;99325.34;;;36.27;31.72
21234;BME280;10774;42.178;26.578;2023-07-20T09:41:13;99334.84;;;36.46;31.02
21234;BME280;10774;42.178;26.578;2023-07-20T09:43:40;99329.22;;;36.56;30.87
21234;BME280;10774;42.178;26.578;2023-07-20T09:46:07;99329.72;;;36.74;30.86
21234;BME280;10774;42.178;26.578;2023-07-20T09:48:32;99326.34;;;36.82;30.79
21234;BME280;10774;42.178;26.578;2023-07-20T09:50:58;99329.13;;;36.97;30.59
21234;BME280;10774;42.178;26.578;2023-07-20T09:53:25;99319.16;;;36.60;30.72
21234;BME280;10774;42.178;26.578;2023-07-20T09:55:52;99318.44;;;37.04;32.22
21234;BME280;10774;42.178;26.578;2023-07-20T09:58:18;99313.47;;;36.91;30.03
21234;BME280;10774;42.178;26.578;2023-07-20T10:00:44;99314.41;;;37.26;29.83
21234;BME280;10774;42.178;26.578;2023-07-20T10:03:14;99310.72;;;37.35;29.43
21234;BME280;10774;42.178;26.578;2023-07-20T10:05:43;99308.47;;;37.37;29.49
21234;BME280;10774;42.178;26.578;2023-07-20T10:08:12;99297.59;;;37.26;29.33
21234;BME280;10774;42.178;26.578;2023-07-20T10:10:40;99297.41;;;37.12;29.17
21234;BME280;10774;42.178;26.578;2023-07-20T10:13:10;99300.06;;;37.37;29.59
21234;BME280;10774;42.178;26.578;2023-07-20T10:15:46;99288.06;;;37.27;29.38
21234;BME280;10774;42.178;26.578;2023-07-20T10:18:22;99293.59;;;37.42;30.34
21234;BME280;10774;42.178;26.578;2023-07-20T10:20:51;99285.47;;;37.46;29.79
21234;BME280;10774;42.178;26.578;2023-07-20T10:23:19;99292.00;;;37.26;29.43
21234;BME280;10774;42.178;26.578;2023-07-20T10:25:45;99286.81;;;37.53;28.86
21234;BME280;10774;42.178;26.578;2023-07-20T10:28:12;99284.69;;;37.35;28.76
21234;BME280;10774;42.178;26.578;2023-07-20T10:30:38;99270.81;;;37.14;29.51
21234;BME280;10774;42.178;26.578;2023-07-20T10:33:05;99268.47;;;37.27;29.37
21234;BME280;10774;42.178;26.578;2023-07-20T10:35:50;99270.59;;;37.50;29.79
21234;BME280;10774;42.178;26.578;2023-07-20T10:38:16;99252.06;;;37.54;29.31
21234;BME280;10774;42.178;26.578;2023-07-20T10:40:41;99260.28;;;37.75;29.17
21234;BME280;10774;42.178;26.578;2023-07-20T10:43:08;99244.50;;;37.89;29.33
21234;BME280;10774;42.178;26.578;2023-07-20T10:48:05;99224.56;;;37.96;29.52
21234;BME280;10774;42.178;26.578;2023-07-20T10:50:32;99212.19;;;37.97;28.89
21234;BME280;10774;42.178;26.578;2023-07-20T10:53:10;99217.44;;;38.08;30.00
21234;BME280;10774;42.178;26.578;2023-07-20T10:55:36;99223.25;;;37.88;29.36
21234;BME280;10774;42.178;26.578;2023-07-20T11:00:35;99216.28;;;38.09;28.79
21234;BME280;10774;42.178;26.578;2023-07-20T11:03:00;99213.06;;;37.97;29.18
21234;BME280;10774;42.178;26.578;2023-07-20T11:05:38;99220.25;;;38.32;29.19
21234;BME280;10774;42.178;26.578;2023-07-20T11:08:10;99224.31;;;38.45;29.07
21234;BME280;10774;42.178;26.578;2023-07-20T11:10:36;99207.81;;;38.62;29.22
21234;BME280;10774;42.178;26.578;2023-07-20T11:13:23;99195.91;;;38.70;28.54
21234;BME280;10774;42.178;26.578;2023-07-20T11:18:25;99197.19;;;38.83;28.49
21234;BME280;10774;42.178;26.578;2023-07-20T11:20:50;99194.47;;;38.73;28.98
21234;BME280;10774;42.178;26.578;2023-07-20T11:23:16;99188.53;;;38.80;28.77
21234;BME280;10774;42.178;26.578;2023-07-20T11:25:42;99173.75;;;38.93;28.98
21234;BME280;10774;42.178;26.578;2023-07-20T11:28:08;99179.28;;;38.79;29.20
21234;BME280;10774;42.178;26.578;2023-07-20T11:30:36;99180.31;;;39.02;28.92
21234;BME280;10774;42.178;26.578;2023-07-20T11:33:03;99176.31;;;39.08;29.29
21234;BME280;10774;42.178;26.578;2023-07-20T11:35:28;99164.34;;;38.84;28.83
21234;BME280;10774;42.178;26.578;2023-07-20T11:37:54;99170.94;;;38.93;29.28
21234;BME280;10774;42.178;26.578;2023-07-20T11:40:20;99168.72;;;38.90;29.08
21234;BME280;10774;42.178;26.578;2023-07-20T11:42:45;99179.47;;;39.02;28.85
21234;BME280;10774;42.178;26.578;2023-07-20T11:45:11;99164.56;;;39.25;28.46
21234;BME280;10774;42.178;26.578;2023-07-20T11:47:40;99166.22;;;39.59;28.29
21234;BME280;10774;42.178;26.578;2023-07-20T11:50:07;99152.22;;;39.72;27.82
21234;BME280;10774;42.178;26.578;2023-07-20T11:52:33;99157.31;;;39.38;28.32
21234;BME280;10774;42.178;26.578;2023-07-20T11:54:59;99152.47;;;39.57;29.05
21234;BME280;10774;42.178;26.578;2023-07-20T11:57:25;99128.47;;;39.65;28.83
21234;BME280;10774;42.178;26.578;2023-07-20T11:59:57;99138.00;;;39.50;28.41
21234;BME280;10774;42.178;26.578;2023-07-20T12:02:27;99147.47;;;39.54;28.08
21234;BME280;10774;42.178;26.578;2023-07-20T12:04:54;99120.16;;;39.73;27.96
21234;BME280;10774;42.178;26.578;2023-07-20T12:07:19;99132.72;;;40.09;27.65
21234;BME280;10774;42.178;26.578;2023-07-20T12:09:45;99128.91;;;39.86;27.16
21234;BME280;10774;42.178;26.578;2023-07-20T12:12:12;99117.41;;;39.55;28.03
21234;BME280;10774;42.178;26.578;2023-07-20T12:14:37;99106.63;;;39.76;27.71
21234;BME280;10774;42.178;26.578;2023-07-20T12:17:03;99105.81;;;39.89;27.51
21234;BME280;10774;42.178;26.578;2023-07-20T12:19:28;99094.59;;;40.16;27.51
21234;BME280;10774;42.178;26.578;2023-07-20T12:21:57;99096.84;;;40.42;27.42
21234;BME280;10774;42.178;26.578;2023-07-20T12:24:25;99094.03;;;40.56;27.25
21234;BME280;10774;42.178;26.578;2023-07-20T12:26:56;99090.59;;;40.45;27.80
21234;BME280;10774;42.178;26.578;2023-07-20T12:29:22;99091.44;;;40.32;27.36
21234;BME280;10774;42.178;26.578;2023-07-20T12:31:48;99094.03;;;40.28;27.80
21234;BME280;10774;42.178;26.578;2023-07-20T12:34:13;99094.09;;;40.64;27.61
21234;BME280;10774;42.178;26.578;2023-07-20T12:36:39;99100.91;;;40.36;26.92
21234;BME280;10774;42.178;26.578;2023-07-20T12:39:04;99096.00;;;40.41;27.19
21234;BME280;10774;42.178;26.578;2023-07-20T12:41:30;99091.56;;;40.76;26.72
21234;BME280;10774;42.178;26.578;2023-07-20T12:43:56;99078.56;;;40.89;27.19
21234;BME280;10774;42.178;26.578;2023-07-20T12:46:23;99082.34;;;41.30;25.80
21234;BME280;10774;42.178;26.578;2023-07-20T12:48:49;99086.06;;;41.39;26.59
21234;BME280;10774;42.178;26.578;2023-07-20T12:51:14;99088.94;;;41.02;26.04
21234;BME280;10774;42.178;26.578;2023-07-20T12:53:40;99083.63;;;41.23;25.74
21234;BME280;10774;42.178;26.578;2023-07-20T12:56:05;99088.72;;;41.35;25.81
21234;BME280;10774;42.178;26.578;2023-07-20T12:58:31;99076.47;;;39.95;26.79
21234;BME280;10774;42.178;26.578;2023-07-20T13:00:56;99080.16;;;38.84;27.87
21234;BME280;10774;42.178;26.578;2023-07-20T13:03:22;99085.53;;;39.92;27.81
21234;BME280;10774;42.178;26.578;2023-07-20T13:05:48;99081.28;;;40.08;27.95
21234;BME280;10774;42.178;26.578;2023-07-20T13:08:14;99071.66;;;40.23;28.27